createdAt,value
2018-06-01T00:01:32.577Z,25.53
2018-06-01T00:04:00.124Z,27.50
2018-06-01T00:06:28.420Z,28.70
2018-06-01T00:08:55.910Z,26.43
2018-06-01T00:11:23.445Z,28.30
2018-06-01T00:13:50.929Z,31.43
2018-06-01T00:16:18.478Z,28.83
2018-06-01T00:18:46.085Z,31.70
2018-06-01T00:21:14.431Z,31.10
2018-06-01T00:23:41.994Z,31.17
2018-06-01T00:26:09.522Z,29.27
2018-06-01T00:28:37.051Z,30.83
2018-06-01T00:31:04.554Z,31.10
2018-06-01T00:33:32.037Z,28.47
2018-06-01T00:35:59.596Z,28.17
2018-06-01T00:38:27.075Z,30.17
2018-06-01T00:40:54.589Z,29.27
2018-06-01T00:43:22.168Z,27.27
2018-06-01T00:45:49.792Z,29.00
2018-06-01T00:48:17.286Z,29.40
2018-06-01T00:50:44.805Z,28.60
2018-06-01T00:53:12.412Z,31.97
2018-06-01T00:55:40.685Z,27.27
2018-06-01T00:58:08.950Z,28.20
2018-06-01T01:00:36.480Z,29.93
2018-06-01T01:03:03.984Z,30.00
2018-06-01T01:05:32.251Z,30.10
2018-06-01T01:08:00.553Z,30.90
2018-06-01T01:10:28.093Z,30.00
2018-06-01T01:12:56.473Z,37.43
2018-06-01T01:15:24.749Z,36.50
2018-06-01T01:17:53.045Z,31.63
2018-06-01T01:20:20.537Z,30.47
2018-06-01T01:22:48.240Z,28.90
2018-06-01T01:25:16.876Z,28.00
2018-06-01T01:27:44.410Z,29.13
2018-06-01T01:30:11.876Z,34.50
2018-06-01T01:32:39.408Z,32.73
2018-06-01T01:35:07.796Z,34.10
2018-06-01T01:37:35.296Z,34.80
2018-06-01T01:40:02.787Z,35.23
2018-06-01T01:42:31.071Z,36.53
2018-06-01T01:44:59.348Z,37.10
2018-06-01T01:47:27.724Z,33.50
2018-06-01T01:49:56.105Z,31.40
2018-06-01T01:52:24.365Z,31.10
2018-06-01T01:54:53.124Z,32.33
2018-06-01T01:57:20.626Z,32.80
2018-06-01T01:59:48.117Z,32.60
2018-06-01T02:02:15.629Z,31.13
2018-06-01T02:04:43.909Z,32.07
2018-06-01T02:07:12.287Z,32.20
2018-06-01T02:09:40.562Z,33.30
2018-06-01T02:12:08.842Z,32.70
2018-06-01T02:14:37.103Z,34.80
2018-06-01T02:17:05.367Z,38.53
2018-06-01T02:19:32.941Z,38.47
2018-06-01T02:22:01.222Z,35.90
2018-06-01T02:24:29.483Z,37.00
2018-06-01T02:26:57.767Z,36.77
2018-06-01T02:29:26.042Z,33.77
2018-06-01T02:31:53.537Z,30.90
2018-06-01T02:34:21.061Z,33.40
2018-06-01T02:36:49.400Z,34.20
2018-06-01T02:39:16.922Z,32.43
2018-06-01T02:41:44.453Z,32.43
2018-06-01T02:44:12.735Z,32.93
2018-06-01T02:46:41.015Z,30.70
2018-06-01T02:49:09.304Z,31.67
2018-06-01T02:51:36.808Z,33.90
2018-06-01T02:54:04.340Z,31.63
2018-06-01T02:56:31.861Z,33.37
2018-06-01T02:59:00.141Z,34.97
2018-06-01T03:01:27.660Z,32.50
2018-06-01T03:03:55.188Z,33.23
2018-06-01T03:06:22.707Z,34.03
2018-06-01T03:08:50.971Z,30.57
2018-06-01T03:11:19.291Z,30.20
2018-06-01T03:13:46.797Z,29.10
2018-06-01T03:16:14.344Z,30.30
2018-06-01T03:18:41.928Z,29.17
2018-06-01T03:21:10.209Z,31.37
2018-06-01T03:23:38.581Z,32.07
2018-06-01T03:26:06.893Z,36.40
2018-06-01T03:28:35.228Z,41.10
2018-06-01T03:31:03.497Z,23.10
2018-06-01T03:33:31.061Z,13.40
2018-06-01T03:35:58.560Z,10.20
2018-06-01T03:38:26.062Z,10.50
2018-06-01T03:40:54.368Z,10.13
2018-06-01T03:43:22.618Z,9.20
2018-06-01T03:45:51.644Z,8.90
2018-06-01T03:48:19.297Z,8.67
2018-06-01T03:50:47.552Z,5.80
2018-06-01T03:53:15.835Z,7.80
2018-06-01T03:55:44.088Z,7.50
2018-06-01T03:58:12.347Z,6.60
2018-06-01T04:00:39.874Z,6.07
2018-06-01T04:03:07.370Z,5.20
2018-06-01T04:05:34.850Z,4.60
2018-06-01T04:08:02.623Z,5.67
2018-06-01T04:10:30.890Z,5.00
2018-06-01T04:12:59.275Z,5.93
2018-06-01T04:15:27.567Z,5.70
2018-06-01T04:17:55.869Z,6.37
2018-06-01T04:20:23.370Z,6.17
2018-06-01T04:22:50.858Z,5.50
2018-06-01T04:25:18.367Z,5.50
2018-06-01T04:27:47.429Z,6.80
2018-06-01T04:30:14.883Z,6.40
2018-06-01T04:32:42.512Z,6.60
2018-06-01T04:35:10.788Z,7.50
2018-06-01T04:37:39.088Z,6.77
2018-06-01T04:40:07.441Z,5.90
2018-06-01T04:42:35.927Z,5.83
2018-06-01T04:45:04.283Z,5.70
2018-06-01T04:47:31.787Z,5.60
2018-06-01T04:49:59.285Z,5.50
2018-06-01T04:52:27.571Z,5.87
2018-06-01T04:54:55.045Z,5.73
2018-06-01T04:57:24.049Z,6.00
2018-06-01T04:59:51.537Z,5.90
2018-06-01T05:02:19.289Z,6.20
2018-06-01T05:04:58.906Z,5.90
2018-06-01T05:07:26.568Z,6.63
2018-06-01T05:09:54.951Z,6.50
2018-06-01T05:12:23.185Z,6.53
2018-06-01T05:14:50.667Z,5.70
2018-06-01T05:17:18.979Z,7.30
2018-06-01T05:19:46.457Z,9.90
2018-06-01T05:22:14.002Z,12.10
2018-06-01T05:24:41.520Z,10.67
2018-06-01T05:27:09.806Z,13.03
2018-06-01T05:29:37.336Z,12.20
2018-06-01T05:32:04.816Z,12.97
2018-06-01T05:34:32.328Z,13.20
2018-06-01T05:36:59.825Z,16.97
2018-06-01T05:39:28.097Z,17.10
2018-06-01T05:41:56.481Z,14.53
2018-06-01T05:44:24.759Z,13.50
2018-06-01T05:46:53.131Z,13.57
2018-06-01T05:49:21.923Z,13.57
2018-06-01T05:51:50.211Z,14.90
2018-06-01T05:54:17.717Z,14.33
2018-06-01T05:56:45.273Z,15.60
2018-06-01T05:59:12.871Z,15.10
2018-06-01T06:01:41.283Z,17.23
2018-06-01T06:04:08.793Z,23.40
2018-06-01T06:06:36.297Z,22.53
2018-06-01T06:09:03.780Z,25.10
2018-06-01T06:11:31.415Z,28.50
2018-06-01T06:13:58.947Z,23.60
2018-06-01T06:16:27.227Z,22.80
2018-06-01T06:18:54.865Z,24.57
2018-06-01T06:21:22.400Z,26.13
2018-06-01T06:23:49.977Z,28.30
2018-06-01T06:26:17.487Z,29.57
2018-06-01T06:28:45.133Z,27.70
2018-06-01T06:31:12.663Z,25.83
2018-06-01T06:33:40.953Z,26.93
2018-06-01T06:36:09.211Z,24.40
2018-06-01T06:38:37.469Z,25.63
2018-06-01T06:41:06.069Z,25.47
2018-06-01T06:43:34.369Z,29.77
2018-06-01T06:46:01.902Z,32.70
2018-06-01T06:48:30.194Z,33.60
2018-06-01T06:50:58.569Z,34.00
2018-06-01T06:53:26.870Z,36.10
2018-06-01T06:55:54.403Z,34.40
2018-06-01T06:58:22.695Z,37.70
2018-06-01T07:00:50.267Z,37.57
2018-06-01T07:03:17.796Z,37.50
2018-06-01T07:05:46.166Z,41.60
2018-06-01T07:08:13.656Z,48.33
2018-06-01T07:10:41.429Z,51.63
2018-06-01T07:13:09.686Z,49.10
2018-06-01T07:15:37.224Z,51.70
2018-06-01T07:18:05.496Z,53.13
2018-06-01T07:20:33.846Z,52.67
2018-06-01T07:23:02.476Z,54.20
2018-06-01T07:25:29.988Z,53.10
2018-06-01T07:27:57.729Z,50.97
2018-06-01T07:30:25.247Z,48.97
2018-06-01T07:32:52.787Z,50.17
2018-06-01T07:35:21.242Z,49.43
2018-06-01T07:37:48.847Z,52.20
2018-06-01T07:40:17.416Z,47.20
2018-06-01T07:42:45.732Z,48.10
2018-06-01T07:45:13.236Z,48.43
2018-06-01T07:47:40.752Z,43.50
2018-06-01T07:50:08.271Z,45.40
2018-06-01T07:52:36.657Z,40.20
2018-06-01T07:55:04.170Z,41.40
2018-06-01T07:57:32.472Z,41.73
2018-06-01T08:00:00.749Z,40.47
2018-06-01T08:02:29.036Z,43.07
2018-06-01T08:04:56.876Z,42.73
2018-06-01T08:07:24.370Z,41.10
2018-06-01T08:09:51.873Z,39.80
2018-06-01T08:12:19.400Z,43.37
2018-06-01T08:14:46.943Z,42.20
2018-06-01T08:17:14.396Z,37.10
2018-06-01T08:19:41.880Z,40.97
2018-06-01T08:22:09.396Z,39.80
2018-06-01T08:24:37.631Z,40.57
2018-06-01T08:27:05.409Z,39.27
2018-06-01T08:29:33.610Z,33.93
2018-06-01T08:32:01.910Z,34.63
2018-06-01T08:34:29.470Z,36.17
2018-06-01T08:36:56.989Z,39.60
2018-06-01T08:39:25.292Z,39.60
2018-06-01T08:41:53.583Z,37.00
2018-06-01T08:44:21.109Z,40.00
2018-06-01T08:46:49.368Z,38.93
2018-06-01T08:49:17.662Z,38.33
2018-06-01T08:51:45.948Z,41.37
2018-06-01T08:54:13.484Z,41.20
2018-06-01T08:56:41.796Z,32.50
2018-06-01T08:59:09.402Z,27.90
2018-06-01T09:01:37.732Z,25.70
2018-06-01T09:04:05.249Z,24.83
2018-06-01T09:06:32.815Z,21.50
2018-06-01T09:09:01.089Z,22.43
2018-06-01T09:11:28.645Z,21.27
2018-06-01T09:13:57.013Z,17.43
2018-06-01T09:16:24.497Z,17.57
2018-06-01T09:18:52.783Z,16.73
2018-06-01T09:21:20.328Z,19.13
2018-06-01T09:23:48.597Z,19.40
2018-06-01T09:26:17.713Z,18.23
2018-06-01T09:28:45.204Z,17.50
2018-06-01T09:31:12.719Z,19.63
2018-06-01T09:33:40.977Z,21.07
2018-06-01T09:36:09.314Z,19.20
2018-06-01T09:38:36.860Z,20.53
2018-06-01T09:41:05.319Z,19.80
2018-06-01T09:43:32.828Z,19.47
2018-06-01T09:46:01.252Z,21.17
2018-06-01T09:48:29.723Z,22.27
2018-06-01T09:50:58.353Z,22.97
2018-06-01T09:53:27.043Z,20.40
2018-06-01T09:55:54.564Z,21.00
2018-06-01T09:58:22.230Z,20.40
2018-06-01T10:00:55.317Z,17.33
2018-06-01T10:03:23.572Z,18.00
2018-06-01T10:05:51.878Z,18.67
2018-06-01T10:08:19.438Z,14.97
2018-06-01T10:10:47.043Z,15.03
2018-06-01T10:13:15.446Z,15.97
2018-06-01T10:15:43.770Z,15.90
2018-06-01T10:18:11.382Z,17.07
2018-06-01T10:20:50.870Z,16.73
2018-06-01T10:23:18.464Z,17.63
2018-06-01T10:25:47.909Z,15.37
2018-06-01T10:28:15.660Z,14.50
2018-06-01T10:30:43.168Z,15.00
2018-06-01T10:33:10.709Z,15.83
2018-06-01T10:35:40.708Z,16.27
2018-06-01T10:38:08.236Z,16.80
2018-06-01T10:40:38.244Z,16.20
2018-06-01T10:43:06.831Z,16.03
2018-06-01T10:45:35.190Z,16.27
2018-06-01T10:48:02.725Z,17.57
2018-06-01T10:50:30.684Z,17.20
2018-06-01T10:52:58.472Z,16.70
2018-06-01T10:55:26.051Z,16.43
2018-06-01T10:57:53.651Z,16.17
2018-06-01T11:00:21.293Z,16.20
2018-06-01T11:02:49.655Z,17.47
2018-06-01T11:05:18.030Z,18.83
2018-06-01T11:07:46.351Z,18.27
2018-06-01T11:10:13.892Z,16.10
2018-06-01T11:12:51.396Z,14.10
2018-06-01T11:15:19.706Z,11.20
2018-06-01T11:17:48.034Z,9.70
2018-06-01T11:20:16.338Z,7.17
2018-06-01T11:22:43.897Z,8.30
2018-06-01T11:25:11.393Z,6.63
2018-06-01T11:27:39.817Z,7.80
2018-06-01T11:30:07.329Z,6.40
2018-06-01T11:32:34.831Z,4.70
2018-06-01T11:35:03.330Z,4.30
2018-06-01T11:37:30.889Z,7.97
2018-06-01T11:39:58.489Z,5.83
2018-06-01T11:42:27.609Z,3.77
2018-06-01T11:44:55.987Z,2.63
2018-06-01T11:47:23.479Z,3.10
2018-06-01T11:49:50.985Z,2.57
2018-06-01T11:52:19.057Z,5.73
2018-06-01T11:54:47.351Z,4.30
2018-06-01T11:57:14.874Z,3.90
2018-06-01T11:59:42.539Z,3.40
2018-06-01T12:02:10.049Z,4.17
2018-06-01T12:04:38.271Z,2.90
2018-06-01T12:07:05.851Z,3.37
2018-06-01T12:09:34.152Z,3.20
2018-06-01T12:12:01.682Z,3.90
2018-06-01T12:14:29.939Z,4.03
2018-06-01T12:16:57.421Z,3.17
2018-06-01T12:19:25.709Z,2.90
2018-06-01T12:21:54.030Z,3.53
2018-06-01T12:24:21.569Z,3.67
2018-06-01T12:26:49.537Z,3.60
2018-06-01T12:29:17.448Z,3.80
2018-06-01T12:31:44.899Z,3.47
2018-06-01T12:34:12.407Z,4.40
2018-06-01T12:36:39.900Z,3.50
2018-06-01T12:39:07.417Z,4.90
2018-06-01T12:41:34.935Z,4.53
2018-06-01T12:44:03.336Z,5.57
2018-06-01T12:46:30.830Z,4.53
2018-06-01T12:48:58.320Z,8.73
2018-06-01T12:51:25.992Z,6.83
2018-06-01T12:53:54.252Z,5.90
2018-06-01T12:56:21.748Z,3.50
2018-06-01T12:58:49.252Z,3.00
2018-06-01T13:01:21.043Z,4.20
2018-06-01T13:03:49.302Z,2.53
2018-06-01T13:06:16.810Z,3.10
2018-06-01T13:08:44.287Z,3.60
2018-06-01T13:11:12.097Z,2.63
2018-06-01T13:13:39.589Z,3.17
2018-06-01T13:16:07.078Z,2.47
2018-06-01T13:18:34.768Z,3.00
2018-06-01T13:21:03.166Z,2.73
2018-06-01T13:23:31.404Z,3.50
2018-06-01T13:25:58.937Z,3.53
2018-06-01T13:28:26.454Z,4.23
2018-06-01T13:30:54.065Z,3.80
2018-06-01T13:33:21.577Z,3.90
2018-06-01T13:35:49.073Z,3.87
2018-06-01T13:38:16.570Z,3.70
2018-06-01T13:40:44.836Z,3.57
2018-06-01T13:43:12.377Z,3.87
2018-06-01T13:45:39.940Z,4.80
2018-06-01T13:48:07.432Z,3.43
2018-06-01T13:50:35.741Z,5.10
2018-06-01T13:53:03.594Z,5.07
2018-06-01T13:55:31.604Z,4.20
2018-06-01T13:57:59.112Z,4.30
2018-06-01T14:00:26.738Z,4.33
2018-06-01T14:02:54.219Z,4.10
2018-06-01T14:05:22.485Z,5.30
2018-06-01T14:07:52.351Z,6.20
2018-06-01T14:10:19.867Z,6.00
2018-06-01T14:12:48.137Z,4.63
2018-06-01T14:15:16.383Z,6.30
2018-06-01T14:17:44.387Z,6.30
2018-06-01T14:20:12.646Z,6.70
2018-06-01T14:22:40.161Z,5.63
2018-06-01T14:25:17.636Z,5.50
2018-06-01T14:27:45.297Z,6.80
2018-06-01T14:30:12.989Z,5.50
2018-06-01T14:32:40.504Z,6.30
2018-06-01T14:35:08.012Z,5.70
2018-06-01T14:37:35.538Z,5.40
2018-06-01T14:40:02.995Z,6.17
2018-06-01T14:42:30.558Z,6.60
2018-06-01T14:44:58.041Z,6.00
2018-06-01T14:47:25.531Z,5.40
2018-06-01T14:49:53.896Z,5.73
2018-06-01T14:52:21.859Z,5.77
2018-06-01T14:54:50.887Z,4.60
2018-06-01T14:57:19.306Z,4.63
2018-06-01T14:59:46.802Z,5.97
2018-06-01T15:02:14.279Z,4.83
2018-06-01T15:04:42.545Z,5.80
2018-06-01T15:07:10.814Z,5.53
2018-06-01T15:09:38.310Z,5.67
2018-06-01T15:12:05.807Z,5.47
2018-06-01T15:14:33.341Z,4.87
2018-06-01T15:17:04.855Z,6.13
2018-06-01T15:19:33.125Z,7.57
2018-06-01T15:22:01.393Z,5.60
2018-06-01T15:24:28.903Z,6.77
2018-06-01T15:26:56.427Z,7.60
2018-06-01T15:29:24.707Z,5.97
2018-06-01T15:31:52.255Z,7.43
2018-06-01T15:34:20.527Z,8.13
2018-06-01T15:36:48.795Z,8.00
2018-06-01T15:39:16.330Z,8.60
2018-06-01T15:41:43.856Z,8.77
2018-06-01T15:44:11.367Z,8.53
2018-06-01T15:46:38.869Z,7.00
2018-06-01T15:49:06.447Z,7.90
2018-06-01T15:51:34.677Z,7.40
2018-06-01T15:54:03.039Z,7.80
2018-06-01T15:56:30.747Z,7.57
2018-06-01T15:58:58.242Z,7.07
2018-06-01T16:01:26.253Z,6.50
2018-06-01T16:03:53.787Z,6.67
2018-06-01T16:06:21.292Z,5.97
2018-06-01T16:08:48.798Z,5.93
2018-06-01T16:11:16.318Z,5.33
2018-06-01T16:13:43.816Z,5.03
2018-06-01T16:16:11.329Z,5.13
2018-06-01T16:18:39.372Z,4.37
2018-06-01T16:21:07.658Z,4.80
2018-06-01T16:23:35.146Z,4.50
2018-06-01T16:26:12.598Z,5.57
2018-06-01T16:28:41.531Z,5.60
2018-06-01T16:31:09.351Z,5.30
2018-06-01T16:33:37.709Z,6.50
2018-06-01T16:36:05.273Z,6.07
2018-06-01T16:38:33.546Z,6.90
2018-06-01T16:41:01.055Z,6.13
2018-06-01T16:43:33.575Z,6.70
2018-06-01T16:46:01.134Z,7.27
2018-06-01T16:48:28.851Z,5.40
2018-06-01T16:50:56.345Z,6.20
2018-06-01T16:53:24.715Z,7.40
2018-06-01T16:55:52.257Z,5.70
2018-06-01T16:58:19.973Z,7.33
2018-06-01T17:00:48.254Z,6.80
2018-06-01T17:03:16.504Z,6.33
2018-06-01T17:05:44.017Z,6.00
2018-06-01T17:08:11.513Z,23.83
2018-06-01T17:10:39.827Z,14.63
2018-06-01T17:13:08.193Z,12.50
2018-06-01T17:15:36.806Z,10.07
2018-06-01T17:18:05.164Z,9.50
2018-06-01T17:20:34.308Z,8.97
2018-06-01T17:23:01.850Z,9.00
2018-06-01T17:25:29.337Z,10.60
2018-06-01T17:27:56.852Z,10.13
2018-06-01T17:30:24.407Z,10.50
2018-06-01T17:32:51.965Z,9.97
2018-06-01T17:35:19.461Z,11.33
2018-06-01T17:37:58.099Z,12.83
2018-06-01T17:40:25.619Z,12.73
2018-06-01T17:42:53.383Z,13.40
2018-06-01T17:45:20.904Z,13.23
2018-06-01T17:47:49.170Z,14.07
2018-06-01T17:50:16.682Z,15.83
2018-06-01T17:52:44.252Z,13.63
2018-06-01T17:55:11.844Z,14.90
2018-06-01T17:57:39.422Z,16.33
2018-06-01T18:00:07.847Z,16.03
2018-06-01T18:02:36.262Z,18.30
2018-06-01T18:05:03.742Z,16.67
2018-06-01T18:07:32.030Z,17.87
2018-06-01T18:09:59.554Z,19.03
2018-06-01T18:12:27.864Z,18.13
2018-06-01T18:14:55.406Z,18.57
2018-06-01T18:17:23.785Z,20.07
2018-06-01T18:19:52.108Z,19.13
2018-06-01T18:22:19.648Z,22.80
2018-06-01T18:24:47.152Z,20.70
2018-06-01T18:27:16.149Z,21.93
2018-06-01T18:29:43.704Z,20.80
2018-06-01T18:32:12.001Z,52.50
2018-06-01T18:34:40.347Z,25.60
2018-06-01T18:37:07.961Z,27.37
2018-06-01T18:39:35.477Z,26.40
2018-06-01T18:42:03.048Z,36.40
2018-06-01T18:44:31.349Z,28.27
2018-06-01T18:46:59.053Z,36.07
2018-06-01T18:49:26.654Z,24.57
2018-06-01T18:51:55.034Z,26.10
2018-06-01T18:54:24.365Z,26.97
2018-06-01T18:56:51.990Z,24.70
2018-06-01T18:59:20.294Z,30.00
2018-06-01T19:01:47.852Z,24.03
2018-06-01T19:04:15.456Z,31.70
2018-06-01T19:06:42.992Z,34.60
2018-06-01T19:09:11.025Z,25.37
2018-06-01T19:11:39.314Z,23.23
2018-06-01T19:14:06.818Z,23.97
2018-06-01T19:16:34.370Z,23.37
2018-06-01T19:19:01.868Z,33.03
2018-06-01T19:21:30.140Z,20.73
2018-06-01T19:23:58.402Z,26.47
2018-06-01T19:26:25.911Z,21.23
2018-06-01T19:28:53.464Z,21.70
2018-06-01T19:31:21.004Z,20.97
2018-06-01T19:33:48.504Z,29.13
2018-06-01T19:36:16.012Z,42.20
2018-06-01T19:38:44.712Z,23.10
2018-06-01T19:41:12.220Z,22.27
2018-06-01T19:43:41.236Z,26.40
2018-06-01T19:46:09.523Z,25.23
2018-06-01T19:48:37.784Z,22.67
2018-06-01T19:51:05.298Z,26.00
2018-06-01T19:53:32.997Z,27.33
2018-06-01T19:56:00.500Z,26.97
2018-06-01T19:58:28.037Z,33.17
2018-06-01T20:00:55.934Z,34.57
2018-06-01T20:03:23.880Z,32.83
2018-06-01T20:05:51.708Z,37.23
2018-06-01T20:08:19.258Z,31.30
2018-06-01T20:10:46.846Z,29.93
2018-06-01T20:13:15.218Z,31.03
2018-06-01T20:15:42.901Z,32.90
2018-06-01T20:18:11.220Z,32.53
2018-06-01T20:20:38.716Z,31.57
2018-06-01T20:23:21.707Z,38.33
2018-06-01T20:25:49.265Z,31.80
2018-06-01T20:28:19.530Z,30.50
2018-06-01T20:30:48.314Z,32.00
2018-06-01T20:33:15.891Z,32.50
2018-06-01T20:35:43.428Z,28.27
2018-06-01T20:38:21.774Z,27.20
2018-06-01T20:40:49.304Z,29.00
2018-06-01T20:43:18.065Z,29.17
2018-06-01T20:45:45.561Z,32.20
2018-06-01T20:48:13.236Z,31.57
2018-06-01T20:50:40.917Z,32.97
2018-06-01T20:53:08.527Z,36.27
2018-06-01T20:55:37.625Z,35.23
2018-06-01T20:58:05.944Z,31.70
2018-06-01T21:00:33.480Z,33.60
2018-06-01T21:03:01.057Z,36.00
2018-06-01T21:05:29.444Z,31.60
2018-06-01T21:07:56.981Z,38.47
2018-06-01T21:10:24.585Z,36.10
2018-06-01T21:12:52.187Z,37.60
2018-06-01T21:15:19.677Z,33.07
2018-06-01T21:17:50.983Z,31.10
2018-06-01T21:20:20.585Z,38.50
2018-06-01T21:22:49.069Z,34.80
2018-06-01T21:25:27.303Z,38.37
2018-06-01T21:27:55.901Z,33.60
2018-06-01T21:30:23.478Z,35.07
2018-06-01T21:32:51.183Z,32.60
2018-06-01T21:35:19.569Z,35.17
2018-06-01T21:37:52.975Z,37.07
2018-06-01T21:40:20.630Z,36.27
2018-06-01T21:42:48.587Z,35.70
2018-06-01T21:45:18.683Z,36.83
2018-06-01T21:47:46.967Z,36.67
2018-06-01T21:50:18.711Z,35.93
2018-06-01T21:52:50.237Z,37.73
2018-06-01T21:55:17.783Z,38.63
2018-06-01T21:57:46.308Z,40.07
2018-06-01T22:00:15.301Z,36.83
2018-06-01T22:02:42.831Z,39.07
2018-06-01T22:05:11.399Z,41.07
2018-06-01T22:07:39.977Z,42.70
2018-06-01T22:10:07.497Z,40.53
2018-06-01T22:12:35.834Z,40.67
2018-06-01T22:15:03.344Z,41.30
2018-06-01T22:17:31.443Z,43.13
2018-06-01T22:19:59.523Z,42.97
2018-06-01T22:22:27.037Z,42.83
2018-06-01T22:25:04.617Z,42.80
2018-06-01T22:27:42.816Z,50.70
2018-06-01T22:30:11.089Z,44.00
2018-06-01T22:32:38.583Z,43.10
2018-06-01T22:35:06.137Z,45.17
2018-06-01T22:37:33.664Z,43.57
2018-06-01T22:40:02.028Z,46.87
2018-06-01T22:42:32.216Z,43.50
2018-06-01T22:44:59.748Z,45.17
2018-06-01T22:47:28.082Z,45.37
2018-06-01T22:49:56.386Z,45.47
2018-06-01T22:52:24.652Z,45.10
2018-06-01T22:54:53.038Z,44.67
2018-06-01T22:57:21.312Z,44.40
2018-06-01T22:59:49.669Z,44.60
2018-06-01T23:02:17.254Z,45.73
2018-06-01T23:04:45.535Z,42.23
2018-06-01T23:07:13.805Z,42.17
2018-06-01T23:09:42.099Z,47.63
2018-06-01T23:12:10.244Z,45.30
2018-06-01T23:14:37.787Z,47.03
2018-06-01T23:17:05.259Z,47.37
2018-06-01T23:19:33.609Z,49.37
2018-06-01T23:22:01.270Z,49.37
2018-06-01T23:24:28.761Z,50.50
2018-06-01T23:26:57.053Z,49.67
2018-06-01T23:29:24.551Z,51.27
2018-06-01T23:31:52.050Z,51.90
2018-06-01T23:34:20.311Z,50.63
2018-06-01T23:36:47.833Z,49.10
2018-06-01T23:39:15.357Z,52.03
2018-06-01T23:41:42.852Z,51.33
2018-06-01T23:44:10.396Z,51.77
2018-06-01T23:46:37.882Z,53.60
2018-06-01T23:49:06.201Z,52.07
2018-06-01T23:51:33.768Z,53.10
2018-06-01T23:54:01.296Z,52.90
2018-06-01T23:56:28.797Z,53.97
2018-06-01T23:58:56.325Z,54.40
